Time;durP1;ratioP1;P1;durP2;ratioP2;P2;SDS_P1;SDS_P2;PMS_P1;PMS_P2;Temp;Humidity;BMP_temperature;BMP_pressure;BME280_temperature;BME280_humidity;BME280_pressure;Samples;Min_cycle;Max_cycle;Signal;HPM_P1;HPM_P2
2022/10/24 00:02:00;;;;;;;19.73;5.40;;;;;;;;;;5112411;28;20024;-77
2022/10/24 00:04:26;;;;;;;17.95;5.35;;;;;;;;;;5110629;28;20035;-77
2022/10/24 00:06:51;;;;;;;23.58;5.38;;;;;;;;;;5110488;28;20062;-76
2022/10/24 00:09:17;;;;;;;17.52;4.93;;;;;;;;;;5110758;28;20012;-76
2022/10/24 00:11:42;;;;;;;20.27;5.18;;;;;;;;;;5110152;28;20204;-76
2022/10/24 00:14:07;;;;;;;23.90;5.00;;;;;;;;;;5097535;28;20026;-76
2022/10/24 00:16:34;;;;;;;24.33;5.85;;;;;;;;;;5115321;28;20505;-76
2022/10/24 00:19:00;;;;;;;25.52;5.38;;;;;;;;;;5113219;28;20042;-76
2022/10/24 00:21:25;;;;;;;27.38;5.85;;;;;;;;;;5117900;28;20299;-77
2022/10/24 00:23:51;;;;;;;25.98;5.47;;;;;;;;;;5119430;28;20052;-77
2022/10/24 00:26:17;;;;;;;23.77;5.25;;;;;;;;;;5115761;28;20066;-74
2022/10/24 00:28:42;;;;;;;27.17;5.30;;;;;;;;;;5113759;28;20024;-76
2022/10/24 00:31:12;;;;;;;23.05;5.07;;;;;;;;;;5099581;28;20026;-77
2022/10/24 00:33:38;;;;;;;22.37;5.47;;;;;;;;;;5114487;28;20106;-77
2022/10/24 00:36:03;;;;;;;16.88;4.80;;;;;;;;;;5116486;28;20086;-77
2022/10/24 00:38:29;;;;;;;26.52;5.70;;;;;;;;;;5095760;28;20028;-78
2022/10/24 00:40:54;;;;;;;21.02;5.32;;;;;;;;;;5115118;28;20114;-77
2022/10/24 00:43:22;;;;;;;25.10;5.63;;;;;;;;;;5116430;28;20035;-78
2022/10/24 00:45:53;;;;;;;30.65;5.38;;;;;;;;;;5118818;28;20035;-77
2022/10/24 00:48:24;;;;;;;24.85;5.75;;;;;;;;;;5121134;28;20023;-76
2022/10/24 00:50:55;;;;;;;21.00;5.25;;;;;;;;;;5117607;28;20067;-76
2022/10/24 00:53:22;;;;;;;22.52;5.20;;;;;;;;;;5121047;28;20043;-76
2022/10/24 00:55:51;;;;;;;25.77;5.25;;;;;;;;;;5115640;28;20318;-75
2022/10/24 00:58:20;;;;;;;20.50;5.15;;;;;;;;;;5119221;28;20188;-76
2022/10/24 01:00:45;;;;;;;20.95;5.05;;;;;;;;;;5115477;28;20015;-76
2022/10/24 01:03:11;;;;;;;23.10;5.30;;;;;;;;;;5113497;28;20502;-76
2022/10/24 01:05:58;;;;;;;24.58;5.63;;;;;;;;;;5114410;28;20034;-76
2022/10/24 01:08:33;;;;;;;21.90;5.22;;;;;;;;;;5116950;28;20108;-76
2022/10/24 01:11:22;;;;;;;22.52;5.72;;;;;;;;;;5095491;28;20020;-76
2022/10/24 01:14:08;;;;;;;20.23;5.90;;;;;;;;;;5113402;28;20081;-76
2022/10/24 01:16:47;;;;;;;20.25;5.63;;;;;;;;;;5117453;28;20038;-76
2022/10/24 01:19:19;;;;;;;22.58;5.95;;;;;;;;;;5118579;28;20581;-76
2022/10/24 01:22:16;;;;;;;17.67;4.90;;;;;;;;;;5114491;28;20028;-76
2022/10/24 01:25:03;;;;;;;23.90;5.68;;;;;;;;;;5056853;28;20048;-76
2022/10/24 01:27:43;;;;;;;23.98;5.38;;;;;;;;;;5113762;28;20035;-77
2022/10/24 01:30:11;;;;;;;24.23;6.28;;;;;;;;;;5113310;28;20023;-76
2022/10/24 01:33:14;;;;;;;21.45;5.15;;;;;;;;;;5100983;28;20030;-76
2022/10/24 01:35:48;;;;;;;21.38;5.35;;;;;;;;;;5097244;28;20119;-76
2022/10/24 01:38:22;;;;;;;23.80;5.75;;;;;;;;;;5113749;28;20061;-76
2022/10/24 01:41:21;;;;;;;20.00;5.05;;;;;;;;;;5115280;28;20606;-76
2022/10/24 01:44:25;;;;;;;19.52;5.55;;;;;;;;;;5087032;28;20039;-76
2022/10/24 01:46:55;;;;;;;23.38;5.38;;;;;;;;;;5090648;28;20486;-76
2022/10/24 01:49:25;;;;;;;20.48;5.38;;;;;;;;;;5113309;28;20034;-77
2022/10/24 01:51:54;;;;;;;21.67;6.22;;;;;;;;;;5112426;28;20110;-77
2022/10/24 01:54:20;;;;;;;21.63;5.53;;;;;;;;;;5114283;28;20044;-76
2022/10/24 01:56:45;;;;;;;23.80;5.82;;;;;;;;;;5113166;28;20026;-77
2022/10/24 01:59:29;;;;;;;19.27;5.68;;;;;;;;;;5113962;28;20485;-77
2022/10/24 02:02:00;;;;;;;23.15;5.38;;;;;;;;;;5112897;28;20092;-77
2022/10/24 02:04:27;;;;;;;22.48;5.55;;;;;;;;;;5095112;28;20168;-77
2022/10/24 02:06:56;;;;;;;22.70;6.05;;;;;;;;;;5119213;28;20319;-76
2022/10/24 02:09:23;;;;;;;29.02;5.97;;;;;;;;;;5101049;28;20045;-76
2022/10/24 02:11:51;;;;;;;26.70;5.88;;;;;;;;;;5113297;28;20024;-77
2022/10/24 02:14:24;;;;;;;20.17;5.93;;;;;;;;;;5112426;28;20110;-77
2022/10/24 02:16:50;;;;;;;22.80;5.63;;;;;;;;;;5113221;28;20059;-76
2022/10/24 02:19:16;;;;;;;19.45;6.25;;;;;;;;;;5112274;28;20027;-77
2022/10/24 02:21:54;;;;;;;22.92;6.25;;;;;;;;;;5114455;28;20023;-75
2022/10/24 02:25:03;;;;;;;23.08;6.22;;;;;;;;;;5112446;28;20038;-77
2022/10/24 02:27:37;;;;;;;24.70;5.90;;;;;;;;;;5093731;28;20027;-77
2022/10/24 02:30:08;;;;;;;23.58;5.35;;;;;;;;;;5094469;28;20119;-76
2022/10/24 02:32:43;;;;;;;25.00;5.90;;;;;;;;;;5114011;28;20027;-77
2022/10/24 02:35:11;;;;;;;23.17;5.90;;;;;;;;;;5094016;28;20047;-77
2022/10/24 02:37:42;;;;;;;24.52;5.93;;;;;;;;;;5112226;28;20414;-76
2022/10/24 02:40:10;;;;;;;23.08;5.82;;;;;;;;;;5114214;28;20597;-76
2022/10/24 02:42:38;;;;;;;25.15;5.95;;;;;;;;;;5094262;28;20032;-77
2022/10/24 02:45:06;;;;;;;24.02;6.07;;;;;;;;;;5093389;28;20032;-77
2022/10/24 02:47:33;;;;;;;27.63;6.28;;;;;;;;;;5111909;28;20024;-77
2022/10/24 02:49:59;;;;;;;18.83;5.53;;;;;;;;;;5111706;27;20084;-76
2022/10/24 02:52:25;;;;;;;19.92;5.53;;;;;;;;;;5111775;28;20515;-76
2022/10/24 02:54:50;;;;;;;24.63;6.00;;;;;;;;;;5111631;28;20075;-76
2022/10/24 02:57:16;;;;;;;21.65;5.22;;;;;;;;;;5112139;28;20498;-77
2022/10/24 02:59:41;;;;;;;21.23;5.95;;;;;;;;;;5093207;28;20055;-77
2022/10/24 03:02:07;;;;;;;22.70;5.60;;;;;;;;;;5118022;28;20639;-76
2022/10/24 03:04:32;;;;;;;16.88;5.45;;;;;;;;;;5115150;28;20234;-76
2022/10/24 03:06:58;;;;;;;21.65;5.78;;;;;;;;;;5115087;28;20478;-76
2022/10/24 03:09:23;;;;;;;26.55;5.60;;;;;;;;;;5111449;28;20030;-76
2022/10/24 03:11:49;;;;;;;23.10;6.45;;;;;;;;;;5111339;28;20076;-76
2022/10/24 03:14:14;;;;;;;24.70;5.75;;;;;;;;;;5111369;28;20023;-76
2022/10/24 03:16:40;;;;;;;20.02;5.28;;;;;;;;;;5111385;28;20024;-77
2022/10/24 03:19:05;;;;;;;23.02;5.85;;;;;;;;;;5111129;28;20023;-77
2022/10/24 03:21:31;;;;;;;24.58;5.95;;;;;;;;;;5112195;28;20030;-76
2022/10/24 03:23:56;;;;;;;20.25;5.65;;;;;;;;;;5110949;28;20112;-77
2022/10/24 03:26:22;;;;;;;24.42;5.63;;;;;;;;;;5113781;28;20383;-77
2022/10/24 03:28:47;;;;;;;25.95;5.80;;;;;;;;;;5113740;28;20068;-76
2022/10/24 03:31:12;;;;;;;21.38;6.00;;;;;;;;;;5112044;28;20016;-76
2022/10/24 03:33:38;;;;;;;17.42;6.18;;;;;;;;;;5097527;28;20161;-76
2022/10/24 03:36:04;;;;;;;24.90;6.07;;;;;;;;;;5111697;28;20015;-76
2022/10/24 03:38:29;;;;;;;25.00;6.53;;;;;;;;;;5115101;28;20234;-76
2022/10/24 03:40:55;;;;;;;29.33;6.55;;;;;;;;;;5112172;28;20043;-75
2022/10/24 03:43:21;;;;;;;27.92;6.45;;;;;;;;;;5110828;28;20069;-76
2022/10/24 03:45:46;;;;;;;28.83;6.72;;;;;;;;;;5113525;28;20023;-76
2022/10/24 03:48:11;;;;;;;30.90;6.93;;;;;;;;;;5110707;28;20024;-76
2022/10/24 03:50:37;;;;;;;27.70;6.32;;;;;;;;;;5111774;28;20046;-76
2022/10/24 03:53:03;;;;;;;30.23;6.78;;;;;;;;;;5115889;28;20091;-76
2022/10/24 03:55:28;;;;;;;33.28;6.97;;;;;;;;;;5111096;28;20064;-76
2022/10/24 03:57:54;;;;;;;28.15;7.25;;;;;;;;;;5092291;28;20023;-75
2022/10/24 04:00:20;;;;;;;26.63;6.38;;;;;;;;;;5111176;28;20034;-75
2022/10/24 04:02:46;;;;;;;21.88;6.05;;;;;;;;;;5111687;28;20028;-76
2022/10/24 04:05:12;;;;;;;25.65;6.40;;;;;;;;;;5114085;28;20024;-79
2022/10/24 04:07:38;;;;;;;23.50;5.82;;;;;;;;;;5111756;28;20039;-78
2022/10/24 04:10:05;;;;;;;22.65;6.20;;;;;;;;;;5112107;28;20020;-77
2022/10/24 04:12:30;;;;;;;22.25;5.95;;;;;;;;;;5115628;28;20043;-77
2022/10/24 04:14:56;;;;;;;27.70;6.47;;;;;;;;;;5115511;28;20065;-78
2022/10/24 04:17:21;;;;;;;26.02;5.75;;;;;;;;;;5099254;28;20027;-77
2022/10/24 04:19:47;;;;;;;21.02;6.18;;;;;;;;;;5110211;28;20019;-77
2022/10/24 04:22:12;;;;;;;29.42;6.20;;;;;;;;;;5110319;28;20378;-77
2022/10/24 04:24:38;;;;;;;25.30;6.15;;;;;;;;;;5110038;28;20035;-77
2022/10/24 04:27:04;;;;;;;25.92;5.55;;;;;;;;;;5111179;28;20031;-77
2022/10/24 04:29:30;;;;;;;22.83;5.85;;;;;;;;;;5111080;28;20027;-78
2022/10/24 04:31:56;;;;;;;22.83;5.82;;;;;;;;;;5093960;28;20027;-78
2022/10/24 04:34:21;;;;;;;26.02;5.53;;;;;;;;;;5109855;28;20506;-77
2022/10/24 04:36:46;;;;;;;25.15;6.00;;;;;;;;;;5094278;28;20034;-78
2022/10/24 04:39:12;;;;;;;26.02;6.15;;;;;;;;;;5110485;28;20092;-77
2022/10/24 04:41:38;;;;;;;23.73;5.85;;;;;;;;;;5109681;28;20114;-77
2022/10/24 04:44:04;;;;;;;21.85;5.40;;;;;;;;;;5092710;28;20024;-77
2022/10/24 04:46:29;;;;;;;23.42;5.75;;;;;;;;;;5112253;28;20463;-78
2022/10/24 04:48:55;;;;;;;26.17;6.05;;;;;;;;;;5112387;28;20015;-78
2022/10/24 04:51:20;;;;;;;25.17;5.95;;;;;;;;;;5110120;28;20019;-77
2022/10/24 04:53:45;;;;;;;19.02;5.80;;;;;;;;;;5111169;28;20020;-77
2022/10/24 04:56:11;;;;;;;21.73;6.15;;;;;;;;;;5110248;28;20399;-78
2022/10/24 04:58:36;;;;;;;24.50;5.90;;;;;;;;;;5091927;28;20030;-78
2022/10/24 05:01:02;;;;;;;22.88;6.30;;;;;;;;;;5110145;28;20020;-77
2022/10/24 05:03:28;;;;;;;24.58;5.78;;;;;;;;;;5109774;28;20794;-77
2022/10/24 05:05:54;;;;;;;22.55;5.90;;;;;;;;;;5109622;28;20044;-77
2022/10/24 05:08:19;;;;;;;25.75;6.43;;;;;;;;;;5111250;28;20028;-77
2022/10/24 05:10:45;;;;;;;29.88;6.45;;;;;;;;;;5110675;28;20019;-77
2022/10/24 05:13:10;;;;;;;28.33;6.78;;;;;;;;;;5109317;28;20020;-78
2022/10/24 05:15:36;;;;;;;22.38;5.88;;;;;;;;;;5112679;28;20120;-78
2022/10/24 05:18:01;;;;;;;25.25;5.97;;;;;;;;;;5113520;28;20084;-78
2022/10/24 05:20:27;;;;;;;23.52;6.32;;;;;;;;;;5113789;28;20117;-78
2022/10/24 05:22:52;;;;;;;27.98;6.30;;;;;;;;;;5116327;28;20019;-77
2022/10/24 05:25:18;;;;;;;22.10;6.47;;;;;;;;;;5116594;28;20030;-78
2022/10/24 05:27:44;;;;;;;24.58;6.97;;;;;;;;;;5118501;28;20076;-77
2022/10/24 05:30:10;;;;;;;29.67;6.70;;;;;;;;;;5115030;28;20031;-77
2022/10/24 05:32:36;;;;;;;27.92;6.60;;;;;;;;;;5114127;28;20028;-77
2022/10/24 05:35:02;;;;;;;28.98;6.43;;;;;;;;;;5115190;28;20034;-78
2022/10/24 05:37:28;;;;;;;22.00;6.47;;;;;;;;;;5113104;28;20030;-77
2022/10/24 05:39:53;;;;;;;24.77;6.15;;;;;;;;;;5114889;28;20031;-77
2022/10/24 05:42:19;;;;;;;27.23;6.18;;;;;;;;;;5117684;28;20027;-78
2022/10/24 05:44:44;;;;;;;25.90;6.30;;;;;;;;;;5113672;28;20035;-77
2022/10/24 05:47:10;;;;;;;26.70;6.63;;;;;;;;;;5113164;28;20023;-77
2022/10/24 05:49:35;;;;;;;28.25;6.75;;;;;;;;;;5113289;28;20419;-77
2022/10/24 05:52:01;;;;;;;22.88;5.95;;;;;;;;;;5113990;28;20023;-77
2022/10/24 05:54:26;;;;;;;23.90;6.38;;;;;;;;;;5112799;28;20075;-77
2022/10/24 05:56:53;;;;;;;20.52;6.00;;;;;;;;;;5115211;28;20084;-77
2022/10/24 05:59:18;;;;;;;31.35;6.97;;;;;;;;;;5114397;28;20051;-78
2022/10/24 06:01:44;;;;;;;24.65;6.53;;;;;;;;;;5114542;28;20055;-78
2022/10/24 06:04:09;;;;;;;28.55;6.20;;;;;;;;;;5115049;28;20456;-78
2022/10/24 06:06:42;;;;;;;22.20;5.38;;;;;;;;;;5116217;28;20031;-82
2022/10/24 06:09:09;;;;;;;24.80;6.38;;;;;;;;;;5112605;28;20016;-78
2022/10/24 06:11:34;;;;;;;24.63;6.78;;;;;;;;;;5113223;28;20032;-77
2022/10/24 06:14:00;;;;;;;28.48;6.50;;;;;;;;;;5116832;28;20120;-79
2022/10/24 06:16:26;;;;;;;29.10;6.93;;;;;;;;;;5116553;28;20471;-80
2022/10/24 06:18:52;;;;;;;22.77;5.68;;;;;;;;;;5119458;28;20031;-78
2022/10/24 06:21:17;;;;;;;24.60;5.68;;;;;;;;;;5112280;28;20085;-84
2022/10/24 06:23:43;;;;;;;22.45;6.13;;;;;;;;;;5094560;28;20032;-78
2022/10/24 06:26:09;;;;;;;20.33;5.93;;;;;;;;;;5094014;28;20063;-78
2022/10/24 06:28:36;;;;;;;25.02;6.20;;;;;;;;;;5112947;28;20058;-78
2022/10/24 06:31:02;;;;;;;27.63;6.55;;;;;;;;;;5113988;28;20031;-81
2022/10/24 06:33:29;;;;;;;25.40;6.50;;;;;;;;;;5112212;28;20019;-80
2022/10/24 06:35:56;;;;;;;22.20;6.03;;;;;;;;;;5111483;28;20039;-77
2022/10/24 06:38:21;;;;;;;19.40;5.78;;;;;;;;;;5112011;28;20016;-82
2022/10/24 06:40:48;;;;;;;27.45;5.95;;;;;;;;;;5112029;28;20029;-80
2022/10/24 06:43:15;;;;;;;25.27;6.50;;;;;;;;;;5093941;28;20024;-80
2022/10/24 06:45:40;;;;;;;22.48;6.10;;;;;;;;;;5094042;28;20027;-82
2022/10/24 06:48:06;;;;;;;47.58;6.60;;;;;;;;;;5111103;28;20039;-80
2022/10/24 06:50:31;;;;;;;42.88;6.57;;;;;;;;;;5101480;28;20027;-79
2022/10/24 06:52:57;;;;;;;28.92;7.07;;;;;;;;;;5105653;28;20032;-83
2022/10/24 06:55:22;;;;;;;26.42;6.53;;;;;;;;;;5073644;28;20052;-81
2022/10/24 06:57:47;;;;;;;34.70;6.63;;;;;;;;;;5082928;28;20027;-77
2022/10/24 07:00:13;;;;;;;30.77;6.55;;;;;;;;;;5112699;28;20637;-76
2022/10/24 07:02:39;;;;;;;32.58;6.47;;;;;;;;;;5112366;28;20051;-79
2022/10/24 07:05:08;;;;;;;29.40;6.30;;;;;;;;;;5111236;28;20031;-78
2022/10/24 07:07:33;;;;;;;29.55;6.65;;;;;;;;;;5072401;28;20061;-86
2022/10/24 07:09:59;;;;;;;30.55;6.18;;;;;;;;;;5072596;28;20026;-79
2022/10/24 07:12:25;;;;;;;23.98;6.25;;;;;;;;;;5095475;28;20027;-80
2022/10/24 07:14:50;;;;;;;20.95;6.18;;;;;;;;;;5105267;28;20482;-76
2022/10/24 07:17:16;;;;;;;25.80;5.80;;;;;;;;;;5077121;28;20024;-80
2022/10/24 07:19:42;;;;;;;19.90;5.55;;;;;;;;;;5070298;28;20120;-81
2022/10/24 07:22:08;;;;;;;30.95;6.28;;;;;;;;;;5088076;28;20104;-78
2022/10/24 07:24:34;;;;;;;151.00;12.00;;;;;;;;;;5088707;28;20089;-79
2022/10/24 07:26:59;;;;;;;140.52;12.48;;;;;;;;;;5087462;28;20478;-83
2022/10/24 07:29:25;;;;;;;51.72;7.95;;;;;;;;;;5070672;28;20024;-81
2022/10/24 07:31:50;;;;;;;41.83;7.45;;;;;;;;;;5070679;28;20032;-76
2022/10/24 07:34:16;;;;;;;44.70;6.85;;;;;;;;;;5088902;28;20020;-84
2022/10/24 07:36:42;;;;;;;31.35;6.30;;;;;;;;;;5088325;28;20028;-79
2022/10/24 07:39:07;;;;;;;30.42;6.93;;;;;;;;;;5090611;28;20020;-81
2022/10/24 07:41:35;;;;;;;34.33;7.15;;;;;;;;;;5072018;28;20502;-81
2022/10/24 07:44:03;;;;;;;31.35;6.60;;;;;;;;;;5071932;28;20169;-79
2022/10/24 07:46:29;;;;;;;22.23;6.07;;;;;;;;;;5090136;28;20031;-79
2022/10/24 07:48:54;;;;;;;26.85;6.10;;;;;;;;;;5090498;28;20472;-79
2022/10/24 07:51:21;;;;;;;29.95;6.35;;;;;;;;;;5090242;28;20113;-77
2022/10/24 07:53:46;;;;;;;31.00;6.43;;;;;;;;;;5089728;28;20024;-77
2022/10/24 07:56:14;;;;;;;35.80;6.95;;;;;;;;;;5093610;28;20286;-79
2022/10/24 07:58:42;;;;;;;25.05;6.25;;;;;;;;;;5087110;28;20044;-77
2022/10/24 08:01:14;;;;;;;25.27;6.60;;;;;;;;;;5069859;28;20106;-78
2022/10/24 08:03:40;;;;;;;33.00;6.95;;;;;;;;;;5070548;28;20052;-81
2022/10/24 08:06:09;;;;;;;33.25;7.40;;;;;;;;;;5050209;28;20056;-76
2022/10/24 08:08:35;;;;;;;30.00;7.35;;;;;;;;;;5069559;28;20066;-79
2022/10/24 08:11:01;;;;;;;32.17;8.07;;;;;;;;;;5069668;28;20487;-79
2022/10/24 08:13:26;;;;;;;34.75;7.60;;;;;;;;;;5069107;28;20089;-79
2022/10/24 08:15:52;;;;;;;38.30;8.48;;;;;;;;;;5070026;28;20020;-79
2022/10/24 08:18:17;;;;;;;32.92;8.15;;;;;;;;;;5071662;28;20021;-79
2022/10/24 08:20:42;;;;;;;33.25;8.30;;;;;;;;;;5051547;28;20028;-79
2022/10/24 08:23:08;;;;;;;31.70;8.45;;;;;;;;;;5069220;28;20025;-79
2022/10/24 08:25:34;;;;;;;35.75;8.30;;;;;;;;;;5051557;28;20471;-79
2022/10/24 08:28:00;;;;;;;30.88;7.97;;;;;;;;;;5069422;28;20031;-79
2022/10/24 08:30:25;;;;;;;29.52;7.47;;;;;;;;;;5069911;28;20530;-79
2022/10/24 08:32:51;;;;;;;29.65;7.85;;;;;;;;;;5069445;28;20021;-80
2022/10/24 08:35:18;;;;;;;42.42;8.07;;;;;;;;;;5051489;28;20105;-81
2022/10/24 08:37:43;;;;;;;35.20;7.78;;;;;;;;;;5069193;28;20033;-79
2022/10/24 08:40:15;;;;;;;33.45;7.95;;;;;;;;;;5069562;28;20040;-79
2022/10/24 08:42:40;;;;;;;29.33;7.75;;;;;;;;;;5069327;28;20104;-80
2022/10/24 08:45:18;;;;;;;34.45;7.82;;;;;;;;;;5069341;28;20112;-79
2022/10/24 08:47:50;;;;;;;26.83;7.22;;;;;;;;;;5069624;28;20023;-80
2022/10/24 08:50:23;;;;;;;26.05;7.60;;;;;;;;;;5073476;28;20030;-79
2022/10/24 08:53:01;;;;;;;31.73;7.47;;;;;;;;;;5073183;28;20502;-79
2022/10/24 08:55:53;;;;;;;30.73;7.05;;;;;;;;;;5073092;28;20663;-79
2022/10/24 08:58:21;;;;;;;31.40;6.43;;;;;;;;;;5073013;28;20086;-79
2022/10/24 09:00:49;;;;;;;29.00;7.63;;;;;;;;;;5055171;28;20420;-79
2022/10/24 09:03:44;;;;;;;27.83;6.43;;;;;;;;;;5073186;28;20446;-79
2022/10/24 09:06:15;;;;;;;23.33;6.18;;;;;;;;;;5068082;28;20040;-80
2022/10/24 09:09:02;;;;;;;28.90;6.97;;;;;;;;;;5072849;28;20100;-81
2022/10/24 09:11:53;;;;;;;27.02;7.53;;;;;;;;;;5072894;28;20025;-80
2022/10/24 09:14:20;;;;;;;23.73;6.78;;;;;;;;;;5058947;28;20044;-81
2022/10/24 09:16:53;;;;;;;26.27;6.75;;;;;;;;;;5073024;28;20032;-80
2022/10/24 09:19:22;;;;;;;25.17;6.50;;;;;;;;;;5072854;28;20020;-80
2022/10/24 09:21:49;;;;;;;28.92;6.85;;;;;;;;;;5072849;28;20636;-80
2022/10/24 09:24:32;;;;;;;26.65;6.72;;;;;;;;;;5072621;28;20103;-80
2022/10/24 09:26:59;;;;;;;29.00;6.60;;;;;;;;;;5072416;28;20048;-80
2022/10/24 09:29:28;;;;;;;26.02;6.72;;;;;;;;;;5072783;28;20032;-79
2022/10/24 09:31:54;;;;;;;18.10;6.13;;;;;;;;;;5072646;28;20111;-79
2022/10/24 09:34:19;;;;;;;25.42;6.28;;;;;;;;;;5072004;28;20107;-80
2022/10/24 09:36:45;;;;;;;30.38;6.60;;;;;;;;;;5054326;28;20032;-79
2022/10/24 09:39:26;;;;;;;20.65;5.15;;;;;;;;;;5072374;28;20437;-79
2022/10/24 09:41:52;;;;;;;17.15;4.15;;;;;;;;;;5072635;28;20029;-80
2022/10/24 09:44:47;;;;;;;19.77;4.80;;;;;;;;;;5072078;28;20431;-79
2022/10/24 09:47:27;;;;;;;20.63;4.53;;;;;;;;;;5050781;28;20067;-81
2022/10/24 09:49:54;;;;;;;13.98;3.95;;;;;;;;;;5054355;28;20035;-81
2022/10/24 09:52:26;;;;;;;17.17;3.95;;;;;;;;;;5072738;28;20024;-77
2022/10/24 09:55:15;;;;;;;17.98;4.25;;;;;;;;;;5053293;28;20634;-81
2022/10/24 09:57:42;;;;;;;21.03;4.30;;;;;;;;;;5071318;28;20032;-83
2022/10/24 10:00:39;;;;;;;18.83;3.88;;;;;;;;;;5072765;28;20051;-80
2022/10/24 10:03:14;;;;;;;24.45;4.28;;;;;;;;;;5071797;28;20033;-82
2022/10/24 10:05:49;;;;;;;23.55;3.97;;;;;;;;;;5069599;28;20029;-80
2022/10/24 10:08:19;;;;;;;20.92;4.22;;;;;;;;;;5071521;28;20038;-76
2022/10/24 10:10:54;;;;;;;;;;;;;;;;;;5080958;28;20055;-77
2022/10/24 10:13:25;;;;;;;17.17;4.75;;;;;;;;;;5084554;28;20530;-76
2022/10/24 10:16:00;;;;;;;23.55;4.70;;;;;;;;;;5071573;28;20512;-77
2022/10/24 10:18:40;;;;;;;18.83;4.43;;;;;;;;;;5086617;28;20020;-81
2022/10/24 10:21:11;;;;;;;14.73;3.80;;;;;;;;;;5092585;28;20103;-77
2022/10/24 10:23:41;;;;;;;18.13;4.00;;;;;;;;;;5091814;28;20032;-76
2022/10/24 10:26:43;;;;;;;20.05;3.60;;;;;;;;;;5073394;28;20036;-79
2022/10/24 10:29:18;;;;;;;17.17;3.83;;;;;;;;;;5077631;28;20027;-74
2022/10/24 10:31:52;;;;;;;17.80;3.97;;;;;;;;;;5091813;28;20526;-79
2022/10/24 10:34:27;;;;;;;15.70;3.50;;;;;;;;;;5072985;28;20020;-76
2022/10/24 10:37:23;;;;;;;13.65;3.60;;;;;;;;;;5091504;28;20376;-80
2022/10/24 10:39:58;;;;;;;16.17;3.83;;;;;;;;;;5090126;28;20059;-75
2022/10/24 10:42:54;;;;;;;15.73;3.75;;;;;;;;;;5092514;28;20024;-83
2022/10/24 10:45:39;;;;;;;16.40;3.53;;;;;;;;;;5091040;28;20034;-73
2022/10/24 10:48:23;;;;;;;13.52;3.40;;;;;;;;;;5091723;28;20552;-74
2022/10/24 10:51:13;;;;;;;10.50;2.40;;;;;;;;;;5091455;28;20052;-74
2022/10/24 10:53:49;;;;;;;;;;;;;;;;;;5091600;28;20024;-74
2022/10/24 10:56:40;;;;;;;9.73;2.38;;;;;;;;;;5091031;28;19912;-74
2022/10/24 10:59:35;;;;;;;14.73;2.55;;;;;;;;;;5090945;28;20624;-73
2022/10/24 11:02:06;;;;;;;8.52;1.83;;;;;;;;;;5069211;28;20040;-77
2022/10/24 11:04:42;;;;;;;7.72;2.20;;;;;;;;;;5091274;28;20024;-75
2022/10/24 11:07:16;;;;;;;10.55;2.08;;;;;;;;;;5092818;28;20476;-80
2022/10/24 11:09:46;;;;;;;9.32;1.92;;;;;;;;;;5090897;28;20039;-73
2022/10/24 11:12:27;;;;;;;;;;;;;;;;;;5090088;28;20031;-72
2022/10/24 11:15:17;;;;;;;10.25;1.55;;;;;;;;;;5090735;28;20415;-75
2022/10/24 11:18:03;;;;;;;6.20;1.50;;;;;;;;;;5090877;28;20399;-72
2022/10/24 11:20:34;;;;;;;7.22;1.70;;;;;;;;;;5090585;28;20024;-73
2022/10/24 11:23:08;;;;;;;4.75;1.60;;;;;;;;;;5090867;28;20032;-72
2022/10/24 11:25:48;;;;;;;5.53;1.50;;;;;;;;;;5072210;28;20436;-71
2022/10/24 11:28:32;;;;;;;6.35;1.40;;;;;;;;;;5091043;28;20028;-73
2022/10/24 11:31:04;;;;;;;9.93;1.83;;;;;;;;;;5090739;28;20055;-73
2022/10/24 11:33:39;;;;;;;13.77;2.20;;;;;;;;;;5090590;28;20020;-72
2022/10/24 11:36:04;;;;;;;9.82;1.85;;;;;;;;;;5090328;28;20052;-76
2022/10/24 11:38:31;;;;;;;12.15;2.08;;;;;;;;;;5090687;28;20052;-79
2022/10/24 11:41:19;;;;;;;10.95;1.95;;;;;;;;;;5092409;28;20078;-82
2022/10/24 11:43:47;;;;;;;5.43;1.63;;;;;;;;;;5073957;28;20108;-76
2022/10/24 11:46:19;;;;;;;8.98;1.48;;;;;;;;;;5090593;28;20083;-83
2022/10/24 11:48:58;;;;;;;7.57;1.55;;;;;;;;;;5090524;28;20024;-81
2022/10/24 11:51:43;;;;;;;9.98;2.05;;;;;;;;;;5090604;28;20031;-81
2022/10/24 11:54:20;;;;;;;7.15;1.50;;;;;;;;;;5090060;28;20044;-79
2022/10/24 11:56:54;;;;;;;7.63;1.60;;;;;;;;;;5090202;28;20090;-75
2022/10/24 11:59:24;;;;;;;8.65;1.80;;;;;;;;;;5071911;28;20108;-79
2022/10/24 12:02:11;;;;;;;11.70;1.87;;;;;;;;;;5092497;28;20077;-77
2022/10/24 12:05:13;;;;;;;17.80;2.55;;;;;;;;;;5090917;28;20526;-86
2022/10/24 12:07:57;;;;;;;5.25;1.40;;;;;;;;;;5072461;28;20031;-90
2022/10/24 12:10:50;;;;;;;6.03;1.58;;;;;;;;;;5092286;28;20028;-85
2022/10/24 12:13:42;;;;;;;9.98;1.58;;;;;;;;;;5072321;28;20028;-84
2022/10/24 12:16:29;;;;;;;7.35;1.60;;;;;;;;;;5054922;28;20036;-84
2022/10/24 12:19:01;;;;;;;5.78;1.27;;;;;;;;;;5072270;28;20515;-90
2022/10/24 12:21:36;;;;;;;6.80;1.52;;;;;;;;;;5090489;28;20387;-80
2022/10/24 12:24:02;;;;;;;7.95;1.33;;;;;;;;;;5094161;28;20682;-89
2022/10/24 12:26:30;;;;;;;6.68;1.48;;;;;;;;;;5095410;28;20409;-90
2022/10/24 12:28:59;;;;;;;11.68;1.67;;;;;;;;;;5095134;28;20039;-96
2022/10/24 12:31:30;;;;;;;7.55;1.30;;;;;;;;;;5075479;28;20107;-77
2022/10/24 12:34:14;;;;;;;11.13;1.40;;;;;;;;;;5096560;28;20020;-78
2022/10/24 12:37:29;;;;;;;8.00;1.52;;;;;;;;;;5075535;28;20115;-75
2022/10/24 12:39:55;;;;;;;6.22;1.55;;;;;;;;;;5093726;28;20024;-75
2022/10/24 12:42:23;;;;;;;6.07;1.40;;;;;;;;;;5093894;28;20052;-74
2022/10/24 12:45:01;;;;;;;6.63;1.60;;;;;;;;;;5088602;28;20027;-77
2022/10/24 12:47:34;;;;;;;4.93;1.40;;;;;;;;;;5071332;28;20082;-77
2022/10/24 12:50:21;;;;;;;6.95;1.25;;;;;;;;;;5072425;28;20020;-79
2022/10/24 12:52:46;;;;;;;6.20;1.45;;;;;;;;;;5072367;28;20031;-79
2022/10/24 12:55:50;;;;;;;6.32;1.70;;;;;;;;;;5082549;28;20043;-78
2022/10/24 12:58:27;;;;;;;3.67;1.20;;;;;;;;;;5075919;28;20395;-80
2022/10/24 13:01:16;;;;;;;6.20;1.20;;;;;;;;;;5093261;28;20502;-78
2022/10/24 13:03:53;;;;;;;6.40;1.30;;;;;;;;;;5075342;28;20027;-78
2022/10/24 13:06:22;;;;;;;4.00;1.20;;;;;;;;;;5096913;28;20028;-79
2022/10/24 13:09:06;;;;;;;5.00;1.40;;;;;;;;;;5074793;28;20028;-81
2022/10/24 13:11:36;;;;;;;5.10;1.20;;;;;;;;;;5095327;28;20181;-78
2022/10/24 13:14:16;;;;;;;5.18;1.40;;;;;;;;;;5076269;28;20035;-80
2022/10/24 13:16:57;;;;;;;6.22;1.38;;;;;;;;;;5091748;28;20024;-82
2022/10/24 13:19:25;;;;;;;5.25;1.25;;;;;;;;;;5099347;28;20085;-81
2022/10/24 13:21:59;;;;;;;5.90;1.40;;;;;;;;;;5081108;28;20038;-79
2022/10/24 13:24:34;;;;;;;8.20;1.60;;;;;;;;;;5094047;28;20452;-77
2022/10/24 13:27:03;;;;;;;3.97;1.20;;;;;;;;;;5091821;28;20557;-80
2022/10/24 13:29:28;;;;;;;6.80;1.30;;;;;;;;;;5077947;28;20028;-81
2022/10/24 13:32:13;;;;;;;5.35;1.15;;;;;;;;;;5094588;28;20074;-83
2022/10/24 13:34:51;;;;;;;6.82;1.40;;;;;;;;;;5072798;28;20030;-79
2022/10/24 13:37:30;;;;;;;5.00;1.23;;;;;;;;;;5091523;28;20089;-78
2022/10/24 13:40:09;;;;;;;9.18;1.80;;;;;;;;;;5091982;28;20028;-82
2022/10/24 13:42:39;;;;;;;9.63;1.50;;;;;;;;;;5093234;28;20027;-78
2022/10/24 13:45:54;;;;;;;10.73;1.73;;;;;;;;;;5092605;28;20026;-76
2022/10/24 13:48:22;;;;;;;4.28;1.20;;;;;;;;;;5082606;28;20037;-75
2022/10/24 13:51:17;;;;;;;10.10;1.80;;;;;;;;;;5094828;28;20054;-76
2022/10/24 13:53:48;;;;;;;5.65;1.40;;;;;;;;;;5087253;28;20024;-77
2022/10/24 13:56:15;;;;;;;4.63;1.52;;;;;;;;;;5100151;28;20055;-75
2022/10/24 13:58:43;;;;;;;6.07;1.42;;;;;;;;;;5097953;28;20027;-77
2022/10/24 14:01:23;;;;;;;6.90;1.25;;;;;;;;;;5101411;28;20020;-76
2022/10/24 14:03:49;;;;;;;;;;;;;;;;;;5099837;28;20024;-76
2022/10/24 14:06:15;;;;;;;5.57;1.30;;;;;;;;;;5097492;28;20073;-77
2022/10/24 14:08:49;;;;;;;5.38;1.40;;;;;;;;;;5097480;28;20058;-76
2022/10/24 14:11:21;;;;;;;5.25;1.23;;;;;;;;;;5102510;28;20024;-77
2022/10/24 14:13:52;;;;;;;7.53;1.80;;;;;;;;;;5102050;28;20066;-76
2022/10/24 14:16:24;;;;;;;7.53;1.50;;;;;;;;;;5102451;28;20118;-77
2022/10/24 14:18:49;;;;;;;7.78;1.42;;;;;;;;;;5103566;28;20020;-79
2022/10/24 14:21:21;;;;;;;6.47;1.58;;;;;;;;;;5100244;28;20118;-80
2022/10/24 14:23:58;;;;;;;10.15;1.27;;;;;;;;;;5102264;28;20016;-78
2022/10/24 14:26:24;;;;;;;5.70;1.48;;;;;;;;;;5089970;28;20555;-73
2022/10/24 14:28:57;;;;;;;7.38;1.58;;;;;;;;;;5080285;28;20142;-74
2022/10/24 14:31:36;;;;;;;8.50;1.77;;;;;;;;;;5081294;28;20028;-76
2022/10/24 14:34:04;;;;;;;3.22;1.20;;;;;;;;;;5080299;28;20024;-76
2022/10/24 14:36:36;;;;;;;6.03;1.50;;;;;;;;;;5077882;28;20025;-75
2022/10/24 14:39:03;;;;;;;6.07;1.60;;;;;;;;;;5079982;28;20088;-75
2022/10/24 14:41:31;;;;;;;9.77;1.60;;;;;;;;;;5080016;28;20028;-74
2022/10/24 14:43:58;;;;;;;9.43;1.73;;;;;;;;;;5081447;28;20048;-73
2022/10/24 14:46:32;;;;;;;12.85;1.75;;;;;;;;;;5080323;28;20040;-76
2022/10/24 14:49:26;;;;;;;7.78;1.50;;;;;;;;;;5087005;28;20020;-73
2022/10/24 14:51:54;;;;;;;6.57;1.40;;;;;;;;;;5097702;28;20066;-75
2022/10/24 14:54:22;;;;;;;6.53;1.05;;;;;;;;;;5092296;28;20040;-78
2022/10/24 14:56:49;;;;;;;9.27;1.40;;;;;;;;;;5090132;28;20047;-76
2022/10/24 14:59:26;;;;;;;4.03;1.30;;;;;;;;;;5089537;28;20047;-77